Time;durP1;ratioP1;P1;durP2;ratioP2;P2;SDS_P1;SDS_P2;PMS_P1;PMS_P2;Temp;Humidity;BMP_temperature;BMP_pressure;BME280_temperature;BME280_humidity;BME280_pressure;Samples;Min_cycle;Max_cycle;Signal;HPM_P1;HPM_P2
2023/12/14 05:30:41;;;;;;;;;2.00;1.75;;;;;18.36;46.75;101255.91;5053228;27;46467;-76
2023/12/14 05:33:07;;;;;;;;;2.00;1.25;;;;;18.34;47.11;101260.56;5055113;28;45225;-76
2023/12/14 05:35:32;;;;;;;;;4.00;2.75;;;;;18.47;46.86;101275.00;5055352;28;45278;-77
2023/12/14 05:37:58;;;;;;;;;3.00;1.25;;;;;18.36;46.85;101258.63;5054953;28;46218;-77
2023/12/14 05:40:23;;;;;;;;;2.00;2.00;;;;;18.34;46.92;101276.00;5055239;28;45416;-76
2023/12/14 05:42:48;;;;;;;;;2.50;2.25;;;;;18.38;47.03;101267.50;5055131;28;45529;-76
2023/12/14 05:45:14;;;;;;;;;1.50;1.00;;;;;18.52;46.84;101264.72;5055131;28;45412;-76
2023/12/14 05:47:41;;;;;;;;;2.25;2.25;;;;;18.65;46.49;101280.16;5036630;28;45993;-77
2023/12/14 05:50:09;;;;;;;;;0.00;0.00;;;;;18.44;46.43;101275.25;5055166;28;45391;-76
2023/12/14 05:52:34;;;;;;;;;2.00;1.75;;;;;18.54;46.38;101272.75;5054911;28;45565;-79
2023/12/14 05:54:59;;;;;;;;;2.75;2.75;;;;;18.46;46.47;101262.41;5055339;28;45387;-76
2023/12/14 05:57:25;;;;;;;;;2.00;1.00;;;;;18.59;46.52;101288.75;5054673;28;45532;-78
2023/12/14 05:59:50;;;;;;;;;3.00;2.00;;;;;18.65;46.30;101289.16;5054506;28;61833;-77
2023/12/14 06:02:15;;;;;;;;;2.75;2.75;;;;;18.72;46.33;101295.03;5036475;28;45770;-77
2023/12/14 06:04:41;;;;;;;;;4.50;2.50;;;;;18.85;46.19;101304.94;5054574;28;54709;-76
2023/12/14 06:07:06;;;;;;;;;2.25;2.25;;;;;18.70;46.06;101278.00;5054245;28;57873;-76
2023/12/14 06:09:34;;;;;;;;;2.50;2.00;;;;;18.85;46.14;101301.34;5055157;28;45519;-76
2023/12/14 06:12:01;;;;;;;;;3.50;2.25;;;;;18.86;45.96;101312.09;5054464;28;45342;-76
2023/12/14 06:14:26;;;;;;;;;1.75;1.75;;;;;18.90;45.88;101315.47;5058506;28;45426;-76
2023/12/14 06:16:52;;;;;;;;;2.00;2.00;;;;;19.08;46.16;101329.56;5044655;28;46360;-76
2023/12/14 06:19:17;;;;;;;;;3.50;1.75;;;;;18.99;45.91;101344.69;5054930;28;45383;-78
2023/12/14 06:21:42;;;;;;;;;6.50;3.75;;;;;18.85;46.07;101326.66;5054670;28;45375;-76
2023/12/14 06:24:08;;;;;;;;;1.50;1.50;;;;;18.86;46.05;101358.28;5035922;28;45573;-78
2023/12/14 06:26:33;;;;;;;;;2.75;2.75;;;;;18.69;45.99;101365.88;5054392;28;46682;-74
2023/12/14 06:28:58;;;;;;;;;5.50;2.75;;;;;18.61;45.87;101362.84;5054579;28;50975;-78
2023/12/14 06:31:24;;;;;;;;;3.00;2.00;;;;;18.67;46.24;101381.41;5054279;28;45309;-76
2023/12/14 06:33:49;;;;;;;;;2.00;2.00;;;;;18.73;45.96;101375.53;5054418;28;45336;-77
2023/12/14 06:36:18;;;;;;;;;3.50;2.00;;;;;18.82;46.02;101377.63;5054585;28;45429;-77
2023/12/14 06:38:44;;;;;;;;;2.00;2.00;;;;;18.89;45.37;101387.06;5054678;28;45193;-78
2023/12/14 06:41:18;;;;;;;;;3.00;3.00;;;;;19.00;45.60;101403.50;5054241;28;45442;-78
2023/12/14 06:43:44;;;;;;;;;2.50;2.50;;;;;19.03;45.36;101407.84;5054761;28;45291;-74
2023/12/14 06:46:10;;;;;;;;;4.00;2.00;;;;;18.96;45.36;101418.31;5054174;28;46531;-77
2023/12/14 06:48:35;;;;;;;;;1.50;1.50;;;;;18.78;45.80;101419.56;5054465;28;49889;-76
2023/12/14 06:51:01;;;;;;;;;1.00;1.00;;;;;18.78;45.91;101404.16;5053697;28;55533;-76
2023/12/14 06:53:26;;;;;;;;;2.00;2.00;;;;;18.80;45.64;101429.34;5036059;28;56576;-77
2023/12/14 06:55:51;;;;;;;;;2.00;2.00;;;;;18.63;45.94;101421.47;5056161;28;49254;-76
2023/12/14 06:58:17;;;;;;;;;1.00;1.00;;;;;18.77;45.99;101436.84;5053830;28;48769;-76
2023/12/14 07:00:42;;;;;;;;;1.25;1.25;;;;;18.80;45.84;101436.63;5040929;28;45352;-77
2023/12/14 07:03:08;;;;;;;;;1.75;1.75;;;;;18.75;46.10;101433.34;5035564;28;45899;-77
2023/12/14 07:05:33;;;;;;;;;1.00;1.00;;;;;18.90;45.76;101456.75;5053857;28;45578;-77
2023/12/14 07:07:58;;;;;;;;;1.00;1.00;;;;;18.94;45.53;101446.53;5053694;28;59612;-77
2023/12/14 07:10:24;;;;;;;;;1.00;1.00;;;;;18.83;45.78;101458.16;5053794;28;45383;-78
2023/12/14 07:12:50;;;;;;;;;0.75;0.75;;;;;18.80;45.59;101461.06;5053758;28;45400;-78
2023/12/14 07:15:15;;;;;;;;;4.00;1.00;;;;;18.86;45.40;101455.22;5057944;28;46054;-77
2023/12/14 07:17:41;;;;;;;;;1.50;1.50;;;;;18.97;45.62;101479.78;5061071;28;45432;-77
2023/12/14 07:20:07;;;;;;;;;7.00;2.50;;;;;18.93;45.54;101481.00;5049799;28;45971;-78
2023/12/14 07:22:32;;;;;;;;;2.25;1.50;;;;;19.00;45.58;101495.03;5048374;28;45647;-76
2023/12/14 07:24:58;;;;;;;;;1.00;1.00;;;;;18.90;45.25;101482.06;5049075;28;46368;-77
2023/12/14 07:27:23;;;;;;;;;5.00;1.00;;;;;19.03;45.55;101489.38;5051200;28;57199;-78
2023/12/14 07:29:48;;;;;;;;;1.75;1.75;;;;;18.90;45.44;101482.06;5052019;28;46107;-80
2023/12/14 07:32:14;;;;;;;;;0.00;0.00;;;;;18.82;45.56;101479.00;5053624;28;45338;-77
2023/12/14 07:34:39;;;;;;;;;2.75;2.00;;;;;18.85;45.32;101505.09;5053569;28;45395;-76
2023/12/14 07:37:05;;;;;;;;;1.50;1.00;;;;;18.85;45.48;101516.84;5057424;28;50064;-77
2023/12/14 07:39:31;;;;;;;;;1.00;1.00;;;;;18.73;45.35;101504.09;5039349;28;45358;-79
2023/12/14 07:41:56;;;;;;;;;0.00;0.00;;;;;18.72;45.85;101534.06;5057046;28;45374;-78
2023/12/14 07:44:22;;;;;;;;;1.00;1.00;;;;;18.69;45.72;101537.00;5057046;28;45273;-78
2023/12/14 07:46:48;;;;;;;;;1.00;1.00;;;;;18.76;45.41;101550.06;5039145;28;45468;-77
2023/12/14 07:49:13;;;;;;;;;0.50;0.00;;;;;18.56;45.83;101527.88;5057060;28;45403;-78
2023/12/14 07:51:38;;;;;;;;;1.00;1.00;;;;;18.57;45.45;101527.81;5057201;28;45557;-79
2023/12/14 07:54:04;;;;;;;;;1.00;1.00;;;;;18.79;45.25;101554.44;5038886;28;47473;-76
2023/12/14 07:56:29;;;;;;;;;3.25;1.50;;;;;18.70;45.38;101547.78;5056951;28;45423;-77
2023/12/14 07:58:54;;;;;;;;;1.00;1.00;;;;;18.70;45.22;101552.34;5056247;28;56302;-78
2023/12/14 08:01:20;;;;;;;;;1.00;1.00;;;;;18.50;45.56;101559.03;5057064;28;45471;-78
2023/12/14 08:03:46;;;;;;;;;4.75;2.25;;;;;18.37;44.88;101548.09;5038343;28;47351;-77
2023/12/14 08:06:11;;;;;;;;;1.25;0.00;;;;;18.49;45.47;101579.91;5057031;28;45256;-78
2023/12/14 08:08:37;;;;;;;;;1.00;1.00;;;;;18.50;45.36;101587.06;5056912;28;45255;-77
2023/12/14 08:11:08;;;;;;;;;3.75;1.25;;;;;18.45;45.40;101561.22;5038804;28;46106;-76
2023/12/14 08:13:33;;;;;;;;;3.00;2.75;;;;;18.26;45.49;101574.22;5038260;28;46646;-77
2023/12/14 08:15:59;;;;;;;;;5.00;3.00;;;;;18.23;45.52;101572.56;5057807;28;51312;-78
2023/12/14 08:18:24;;;;;;;;;1.00;1.00;;;;;18.17;45.68;101589.25;5062645;28;45429;-77
2023/12/14 08:20:55;;;;;;;;;2.50;2.00;;;;;18.33;46.36;101609.03;5056550;28;49093;-77
2023/12/14 08:23:20;;;;;;;;;2.00;2.00;;;;;18.42;45.61;101621.13;5056516;28;46026;-78
2023/12/14 08:25:46;;;;;;;;;3.75;2.25;;;;;18.03;45.33;101589.28;5056812;28;45320;-77
2023/12/14 08:28:11;;;;;;;;;4.50;2.00;;;;;18.18;45.45;101601.88;5038455;28;45379;-78
2023/12/14 08:30:38;;;;;;;;;4.25;3.00;;;;;18.27;44.99;101630.28;5038411;28;45987;-77
2023/12/14 08:33:04;;;;;;;;;2.00;2.00;;;;;18.46;45.18;101634.41;5057816;28;46248;-77
2023/12/14 08:35:29;;;;;;;;;2.00;2.00;;;;;18.27;45.24;101622.13;5068179;28;45355;-77
2023/12/14 08:37:54;;;;;;;;;5.00;3.00;;;;;18.27;45.21;101638.41;5038376;28;45685;-78
2023/12/14 08:40:20;;;;;;;;;2.25;2.25;;;;;18.02;45.61;101641.81;5056738;28;45845;-77
2023/12/14 08:42:47;;;;;;;;;2.00;2.00;;;;;18.02;45.38;101653.53;5055902;28;45929;-77
2023/12/14 08:45:12;;;;;;;;;2.00;2.00;;;;;18.11;45.41;101662.94;5056568;28;45267;-79
2023/12/14 08:47:38;;;;;;;;;2.00;2.00;;;;;18.32;45.21;101664.28;5055718;28;45520;-76
2023/12/14 08:50:04;;;;;;;;;7.00;3.00;;;;;18.29;44.87;101644.63;5056284;28;45489;-76
2023/12/14 08:52:29;;;;;;;;;4.50;3.00;;;;;18.41;44.56;101680.00;5055823;28;46145;-79
2023/12/14 08:54:54;;;;;;;;;5.25;3.75;;;;;18.24;44.64;101666.63;5059049;28;45274;-76
2023/12/14 08:57:20;;;;;;;;;3.75;3.75;;;;;18.21;44.36;101676.78;5061963;28;45216;-77
2023/12/14 08:59:45;;;;;;;;;4.50;2.00;;;;;18.06;44.89;101675.91;5062248;28;57048;-78
2023/12/14 09:02:11;;;;;;;;;2.00;2.00;;;;;17.99;45.11;101670.00;5039080;28;48547;-76
2023/12/14 09:04:36;;;;;;;;;3.25;2.75;;;;;18.06;44.70;101670.47;5056191;28;45401;-77
2023/12/14 09:07:03;;;;;;;;;2.00;2.00;;;;;18.09;44.89;101670.28;5037961;28;45446;-77
2023/12/14 09:09:29;;;;;;;;;1.75;1.75;;;;;18.10;44.74;101653.94;5037959;28;45391;-78
2023/12/14 09:11:54;;;;;;;;;3.00;3.00;;;;;18.36;44.18;101703.84;5037511;28;46363;-79
2023/12/14 09:14:20;;;;;;;;;2.50;2.00;;;;;18.44;44.48;101709.69;5055876;28;45525;-77
2023/12/14 09:16:45;;;;;;;;;2.00;2.00;;;;;18.45;44.21;101715.97;5062670;28;45462;-76
2023/12/14 09:19:11;;;;;;;;;2.50;2.50;;;;;18.31;44.04;101681.53;5055729;28;45308;-77
2023/12/14 09:21:37;;;;;;;;;4.25;2.50;;;;;18.39;43.76;101700.06;5055739;28;46261;-76
2023/12/14 09:24:02;;;;;;;;;2.25;2.00;;;;;18.42;44.23;101725.19;5037566;28;45465;-78
2023/12/14 09:26:28;;;;;;;;;2.00;2.00;;;;;18.34;43.80;101711.22;5055495;28;45399;-77
2023/12/14 09:28:53;;;;;;;;;5.00;2.50;;;;;18.48;43.50;101732.94;5055518;28;45478;-78
2023/12/14 09:31:19;;;;;;;;;3.00;2.00;;;;;18.33;43.83;101703.16;5055315;28;45709;-77
2023/12/14 09:33:44;;;;;;;;;4.00;2.75;;;;;18.24;43.61;101720.03;5055367;28;45197;-77
2023/12/14 09:36:09;;;;;;;;;4.00;3.00;;;;;18.36;44.19;101717.44;5055673;28;45492;-78
2023/12/14 09:38:36;;;;;;;;;3.00;3.00;;;;;18.61;43.90;101729.50;5055310;28;45326;-77
2023/12/14 09:41:01;;;;;;;;;4.25;2.50;;;;;18.40;43.61;101702.69;5037127;28;47403;-76
2023/12/14 09:43:26;;;;;;;;;3.00;3.00;;;;;18.61;43.21;101751.22;5054994;28;45216;-77
2023/12/14 09:45:53;;;;;;;;;5.00;2.50;;;;;18.18;43.68;101742.13;5055494;28;45466;-77
2023/12/14 09:48:19;;;;;;;;;2.25;2.25;;;;;18.27;43.68;101749.72;5055226;28;45504;-77
2023/12/14 09:50:45;;;;;;;;;3.00;3.00;;;;;18.17;43.54;101738.53;5055033;28;45580;-76
2023/12/14 09:53:12;;;;;;;;;7.00;2.00;;;;;18.29;43.13;101745.06;5055000;28;45475;-77
2023/12/14 09:55:37;;;;;;;;;4.00;4.00;;;;;18.41;43.35;101753.31;5054936;28;45450;-79
2023/12/14 09:58:03;;;;;;;;;4.25;4.25;;;;;18.11;43.29;101731.66;5054308;28;45231;-77
2023/12/14 10:00:39;;;;;;;;;4.25;2.75;;;;;18.13;43.44;101753.25;5055201;28;46206;-77
2023/12/14 10:03:26;;;;;;;;;4.00;4.00;;;;;18.15;43.50;101752.19;5055034;28;45499;-78
2023/12/14 10:05:52;;;;;;;;;2.75;2.00;;;;;18.50;42.86;101779.00;5054889;28;45362;-78
2023/12/14 10:08:18;;;;;;;;;3.00;3.00;;;;;18.57;42.56;101798.53;5036733;28;45284;-78
2023/12/14 10:10:46;;;;;;;;;5.00;2.75;;;;;18.49;42.53;101796.25;5054713;28;45761;-77
2023/12/14 10:13:12;;;;;;;;;3.50;2.50;;;;;18.42;42.54;101787.63;5054891;28;45312;-79
2023/12/14 10:15:46;;;;;;;;;3.25;3.25;;;;;18.61;42.50;101786.53;5036830;28;45185;-78
2023/12/14 10:18:21;;;;;;;;;4.50;4.50;;;;;18.64;42.21;101789.03;5062289;28;45467;-78
2023/12/14 10:20:47;;;;;;;;;3.00;3.00;;;;;18.80;42.74;101806.09;5054647;28;45592;-77
2023/12/14 10:23:12;;;;;;;;;4.75;4.75;;;;;18.86;42.65;101787.59;5036401;28;45304;-77
2023/12/14 10:25:37;;;;;;;;;3.75;3.75;;;;;19.10;41.95;101806.88;5054972;28;45315;-78
2023/12/14 10:28:03;;;;;;;;;2.75;2.75;;;;;19.31;41.49;101822.78;5054647;28;45641;-77
2023/12/14 10:30:28;;;;;;;;;4.00;4.00;;;;;19.20;41.41;101821.63;5054814;28;45345;-78
2023/12/14 10:32:54;;;;;;;;;3.50;3.50;;;;;18.70;41.35;101796.81;5036337;28;45348;-77
2023/12/14 10:35:21;;;;;;;;;7.50;4.75;;;;;18.75;41.95;101794.66;5036715;28;45632;-78
2023/12/14 10:37:52;;;;;;;;;5.75;4.75;;;;;19.08;41.74;101833.28;5054422;28;46425;-78
2023/12/14 10:40:18;;;;;;;;;3.25;3.25;;;;;18.99;41.36;101846.56;5054572;28;46064;-77
2023/12/14 10:42:44;;;;;;;;;5.00;3.25;;;;;18.93;41.36;101845.13;5036399;28;45312;-76
2023/12/14 10:45:12;;;;;;;;;2.00;2.00;;;;;18.85;41.42;101853.78;5055010;28;45399;-78
2023/12/14 10:47:43;;;;;;;;;2.50;2.50;;;;;18.86;41.07;101851.94;5054555;28;45512;-79
2023/12/14 10:50:11;;;;;;;;;3.00;3.00;;;;;18.90;40.95;101848.91;5054621;28;46614;-78
2023/12/14 10:52:39;;;;;;;;;3.00;3.00;;;;;18.79;41.30;101816.13;5036139;28;45269;-79
2023/12/14 10:55:07;;;;;;;;;2.75;2.75;;;;;18.77;40.98;101815.34;5054429;28;45399;-79
2023/12/14 10:57:34;;;;;;;;;2.75;2.75;;;;;18.79;41.17;101865.03;5053965;28;45674;-78
2023/12/14 11:00:01;;;;;;;;;3.75;3.00;;;;;18.78;41.46;101876.00;5054583;28;45259;-76
2023/12/14 11:02:27;;;;;;;;;5.00;3.00;;;;;18.77;41.50;101869.69;5036222;28;45581;-78
2023/12/14 11:04:59;;;;;;;;;0.50;0.50;;;;;18.76;40.94;101853.47;5054449;28;45344;-79
2023/12/14 11:07:46;;;;;;;;;2.00;2.00;;;;;18.74;40.95;101875.28;5054388;28;45575;-78
2023/12/14 11:10:12;;;;;;;;;7.75;2.25;;;;;18.64;40.72;101893.13;5056555;28;45329;-79
2023/12/14 11:12:38;;;;;;;;;2.25;2.25;;;;;18.60;41.01;101858.97;5064798;28;45518;-79
2023/12/14 11:15:05;;;;;;;;;2.75;2.00;;;;;18.87;40.35;101880.84;5065378;28;45653;-79
2023/12/14 11:17:31;;;;;;;;;1.75;1.75;;;;;18.61;40.48;101868.00;5058897;28;45442;-79
2023/12/14 11:19:56;;;;;;;;;3.50;2.00;;;;;18.85;40.45;101885.50;5059171;28;45307;-77
2023/12/14 11:22:27;;;;;;;;;1.50;0.25;;;;;18.88;39.99;101877.16;5058401;28;45687;-79
2023/12/14 11:24:55;;;;;;;;;4.75;2.00;;;;;18.94;40.09;101889.47;5040265;28;45484;-78
2023/12/14 11:27:30;;;;;;;;;3.00;3.00;;;;;18.93;40.25;101890.44;5057943;28;45384;-80
2023/12/14 11:29:57;;;;;;;;;1.50;1.50;;;;;19.07;39.83;101877.72;5057504;28;45366;-78
2023/12/14 11:32:22;;;;;;;;;2.00;2.00;;;;;19.22;39.32;101878.63;5057310;28;45352;-77
2023/12/14 11:34:48;;;;;;;;;4.00;2.50;;;;;19.21;39.50;101872.31;5057437;28;45373;-78
2023/12/14 11:37:14;;;;;;;;;3.25;3.00;;;;;19.41;39.32;101884.59;5057628;28;45378;-78
2023/12/14 11:39:40;;;;;;;;;3.50;1.50;;;;;19.62;38.72;101895.97;5056898;28;46139;-78
2023/12/14 11:42:10;;;;;;;;;3.75;2.00;;;;;19.71;38.59;101895.38;5057372;28;45409;-79
2023/12/14 11:44:36;;;;;;;;;1.00;1.00;;;;;19.90;37.96;101897.75;5057356;28;45458;-79
2023/12/14 11:47:02;;;;;;;;;2.75;2.75;;;;;19.85;37.74;101875.41;5057049;28;45586;-77
2023/12/14 11:49:27;;;;;;;;;1.25;1.00;;;;;19.74;36.97;101887.00;5056739;28;45763;-76
2023/12/14 11:51:55;;;;;;;;;2.25;1.50;;;;;19.78;37.62;101904.88;5057336;28;45229;-76
2023/12/14 11:54:32;;;;;;;;;1.50;1.50;;;;;19.62;37.26;101901.41;5057119;28;45527;-77
2023/12/14 11:57:01;;;;;;;;;2.00;2.00;;;;;19.82;37.23;101905.56;5057026;28;45604;-78
2023/12/14 11:59:26;;;;;;;;;2.75;2.75;;;;;19.89;37.62;101893.28;5056432;28;46750;-76
2023/12/14 12:01:58;;;;;;;;;2.75;2.00;;;;;19.94;36.99;101902.88;5038718;28;45335;-78
2023/12/14 12:04:25;;;;;;;;;1.25;1.25;;;;;19.95;37.14;101895.59;5057051;28;45542;-77
2023/12/14 12:07:01;;;;;;;;;1.75;1.75;;;;;19.88;37.44;101875.22;5056572;28;45277;-77
2023/12/14 12:09:39;;;;;;;;;4.00;2.00;;;;;19.71;37.68;101895.38;5056879;28;46225;-77
2023/12/14 12:12:06;;;;;;;;;2.50;2.50;;;;;19.73;37.51;101874.38;5038382;28;45565;-77
2023/12/14 12:14:31;;;;;;;;;2.25;2.00;;;;;19.60;36.67;101844.38;5058068;28;45423;-78
2023/12/14 12:16:56;;;;;;;;;3.75;2.50;;;;;19.78;36.92;101868.63;5063923;28;47165;-77
2023/12/14 12:19:22;;;;;;;;;5.00;4.00;;;;;19.77;37.15;101875.91;5057070;28;46249;-78
2023/12/14 12:21:47;;;;;;;;;3.00;3.00;;;;;19.82;37.21;101881.91;5056000;28;45574;-77
2023/12/14 12:24:12;;;;;;;;;2.00;2.00;;;;;19.57;37.34;101888.09;5057085;28;45489;-78
2023/12/14 12:26:38;;;;;;;;;2.25;2.25;;;;;19.55;37.37;101891.91;5056417;28;45597;-77
2023/12/14 12:29:05;;;;;;;;;3.00;3.00;;;;;19.48;37.46;101883.25;5056874;28;45338;-77
2023/12/14 12:31:31;;;;;;;;;3.25;3.25;;;;;19.21;37.55;101849.69;5056495;28;45524;-77
2023/12/14 12:33:56;;;;;;;;;4.00;4.00;;;;;19.43;37.49;101877.22;5056619;28;45426;-78
2023/12/14 12:36:22;;;;;;;;;6.75;4.00;;;;;19.43;36.75;101876.34;5055992;28;54930;-77
2023/12/14 12:38:47;;;;;;;;;2.00;2.00;;;;;19.54;37.31;101892.88;5056813;28;45318;-78
2023/12/14 12:41:13;;;;;;;;;1.00;1.00;;;;;19.27;37.35;101882.78;5054957;28;45306;-80
2023/12/14 12:43:38;;;;;;;;;4.00;2.75;;;;;18.93;37.86;101874.16;5056897;28;45284;-77
2023/12/14 12:46:04;;;;;;;;;1.25;1.25;;;;;18.88;37.82;101877.16;5056399;28;46428;-77
2023/12/14 12:48:29;;;;;;;;;1.00;1.00;;;;;18.99;38.16;101898.22;5056508;28;45224;-76
2023/12/14 12:50:55;;;;;;;;;2.00;1.00;;;;;18.97;37.93;101911.88;5056252;28;45275;-77
2023/12/14 12:53:20;;;;;;;;;3.00;2.00;;;;;18.75;38.50;101889.75;5056413;28;45237;-78
2023/12/14 12:55:45;;;;;;;;;3.50;3.50;;;;;19.02;38.32;101914.34;5055992;28;45289;-78
2023/12/14 12:58:11;;;;;;;;;1.75;1.75;;;;;19.08;38.34;101908.50;5055606;28;48255;-77
2023/12/14 13:00:37;;;;;;;;;2.50;2.50;;;;;19.09;37.85;101886.66;5056020;28;46151;-78
2023/12/14 13:03:03;;;;;;;;;4.00;2.50;;;;;19.05;37.66;101885.13;5056393;28;45755;-78
2023/12/14 13:05:28;;;;;;;;;3.50;1.00;;;;;19.00;37.84;101906.28;5055678;28;45382;-77
2023/12/14 13:07:54;;;;;;;;;1.00;1.00;;;;;19.09;37.67;101912.97;5055697;28;57891;-77
2023/12/14 13:10:22;;;;;;;;;3.00;1.00;;;;;18.95;37.79;101907.53;5056662;28;45388;-76
2023/12/14 13:12:48;;;;;;;;;3.00;2.00;;;;;18.85;38.17;101921.69;5056239;28;45547;-77
2023/12/14 13:15:13;;;;;;;;;1.50;1.50;;;;;18.81;37.91;101930.13;5055952;28;45558;-78
2023/12/14 13:17:38;;;;;;;;;2.00;2.00;;;;;18.67;38.21;101911.97;5063187;28;45481;-79
2023/12/14 13:20:06;;;;;;;;;1.00;1.00;;;;;18.70;38.29;101935.34;5055802;28;45154;-77
2023/12/14 13:22:32;;;;;;;;;2.75;2.75;;;;;18.67;38.51;101921.94;5057314;28;45232;-78
2023/12/14 13:24:57;;;;;;;;;3.00;1.00;;;;;18.80;38.67;101937.38;5056190;28;45379;-76
2023/12/14 13:27:24;;;;;;;;;3.00;1.25;;;;;18.77;38.32;101913.16;5056603;28;45340;-79
2023/12/14 13:29:49;;;;;;;;;2.00;2.00;;;;;18.87;38.34;101929.75;5038130;28;45518;-78
2023/12/14 13:32:14;;;;;;;;;2.25;1.00;;;;;18.93;38.39;101923.94;5055393;28;45324;-76
2023/12/14 13:34:40;;;;;;;;;3.00;2.00;;;;;18.88;38.46;101915.22;5055120;28;45490;-76
2023/12/14 13:37:05;;;;;;;;;2.00;2.00;;;;;18.86;38.45;101906.28;5056222;28;45402;-78
2023/12/14 13:39:33;;;;;;;;;1.00;1.00;;;;;19.01;38.41;101929.78;5055563;28;45410;-78
2023/12/14 13:41:59;;;;;;;;;2.00;2.00;;;;;19.13;38.55;101934.44;5056265;28;45388;-76
2023/12/14 13:44:24;;;;;;;;;2.25;2.25;;;;;19.20;38.32;101926.78;5055646;28;45520;-76
2023/12/14 13:46:49;;;;;;;;;2.00;2.00;;;;;19.44;37.95;101937.94;5056063;28;48686;-80
2023/12/14 13:49:15;;;;;;;;;2.25;2.25;;;;;19.12;37.57;101918.22;5056345;28;45236;-77
2023/12/14 13:51:40;;;;;;;;;2.00;2.00;;;;;19.19;37.85;101919.59;5056183;28;45446;-78
2023/12/14 13:54:05;;;;;;;;;2.00;1.00;;;;;19.41;37.87;101952.59;5069820;28;45467;-77
2023/12/14 13:56:31;;;;;;;;;0.75;0.75;;;;;19.54;37.82;101955.44;5055049;28;56347;-77
2023/12/14 13:58:56;;;;;;;;;1.00;1.00;;;;;19.49;37.77;101930.38;5037261;28;45761;-77
2023/12/14 14:01:21;;;;;;;;;1.00;1.00;;;;;19.64;37.40;101960.22;5056239;28;45343;-77
2023/12/14 14:03:47;;;;;;;;;3.00;1.00;;;;;19.61;37.55;101951.34;5055319;28;49234;-78
2023/12/14 14:06:12;;;;;;;;;1.00;1.00;;;;;19.52;37.55;101949.22;5054861;28;45259;-77
2023/12/14 14:08:38;;;;;;;;;0.00;0.00;;;;;19.49;37.41;101943.97;5055666;28;45415;-78
2023/12/14 14:11:04;;;;;;;;;2.00;1.00;;;;;19.49;37.63;101936.69;5056239;28;45415;-79
2023/12/14 14:13:29;;;;;;;;;1.00;1.00;;;;;19.56;37.21;101942.63;5037462;28;45477;-76
2023/12/14 14:15:55;;;;;;;;;0.25;0.25;;;;;19.56;37.47;101942.63;5038302;28;46629;-80
2023/12/14 14:18:20;;;;;;;;;3.75;1.75;;;;;19.63;37.46;101963.03;5063719;28;45457;-76
2023/12/14 14:20:45;;;;;;;;;1.00;1.00;;;;;19.69;37.46;101968.06;5055250;28;45571;-78
2023/12/14 14:23:11;;;;;;;;;1.50;1.50;;;;;19.43;37.26;101944.34;5036837;28;49885;-78
2023/12/14 14:25:36;;;;;;;;;3.00;1.50;;;;;19.52;36.39;101957.38;5036305;28;47278;-76
2023/12/14 14:28:02;;;;;;;;;1.00;1.00;;;;;19.45;36.81;101981.34;5054990;28;45409;-76
2023/12/14 14:30:28;;;;;;;;;1.50;1.00;;;;;19.08;38.05;101954.72;5055198;28;45444;-79
2023/12/14 14:32:53;;;;;;;;;0.75;0.75;;;;;19.37;36.93;101986.41;5053461;28;45637;-78
2023/12/14 14:35:19;;;;;;;;;1.25;1.25;;;;;19.44;37.01;101992.31;5054988;28;45287;-79
2023/12/14 14:37:47;;;;;;;;;1.00;1.00;;;;;19.15;37.38;101980.53;5055207;28;45274;-78
2023/12/14 14:40:13;;;;;;;;;1.00;0.00;;;;;19.11;37.55;101968.13;5055100;28;45499;-79
2023/12/14 14:42:40;;;;;;;;;2.75;2.00;;;;;19.28;37.56;101987.88;5053596;28;45676;-77
2023/12/14 14:45:08;;;;;;;;;2.00;1.00;;;;;19.45;37.57;102004.97;5054287;28;45707;-76
2023/12/14 14:47:35;;;;;;;;;1.00;1.00;;;;;19.49;37.41;102006.53;5054779;28;45537;-79
2023/12/14 14:50:03;;;;;;;;;1.50;0.00;;;;;19.55;37.27;102015.22;5070240;28;45383;-78
2023/12/14 14:52:32;;;;;;;;;6.50;2.00;;;;;19.39;37.01;102017.13;5054433;28;45552;-78
2023/12/14 14:55:12;;;;;;;;;1.00;1.00;;;;;19.13;37.31;101996.97;5052705;28;45639;-77
2023/12/14 14:57:37;;;;;;;;;1.00;1.00;;;;;19.00;37.62;102003.25;5054409;28;45474;-76
2023/12/14 15:00:03;;;;;;;;;1.50;1.00;;;;;19.16;37.87;102042.09;5054758;28;45567;-77
2023/12/14 15:02:29;;;;;;;;;1.00;1.00;;;;;18.91;37.67;102020.97;5052877;28;47466;-80
2023/12/14 15:04:54;;;;;;;;;1.00;1.00;;;;;18.81;38.02;102060.53;5053839;28;47614;-76
2023/12/14 15:07:19;;;;;;;;;2.00;2.00;;;;;18.65;38.18;102047.00;5053265;28;45336;-77
2023/12/14 15:09:45;;;;;;;;;1.00;1.00;;;;;18.77;38.42;102061.69;5055017;28;45474;-78
2023/12/14 15:12:10;;;;;;;;;3.00;1.00;;;;;18.59;38.34;102024.75;5054580;28;45870;-78
2023/12/14 15:14:35;;;;;;;;;4.00;1.00;;;;;18.72;38.23;102032.06;5054282;28;46194;-76
2023/12/14 15:17:01;;;;;;;;;1.00;1.00;;;;;18.82;38.50;102054.13;5061546;28;45257;-77
2023/12/14 15:19:26;;;;;;;;;1.00;1.00;;;;;18.81;38.71;102053.25;5054676;28;45331;-76
2023/12/14 15:21:51;;;;;;;;;3.75;2.00;;;;;18.79;38.63;102060.66;5054286;28;45528;-76
2023/12/14 15:24:16;;;;;;;;;2.50;2.00;;;;;18.75;38.46;102069.94;5054503;28;46342;-77
2023/12/14 15:26:42;;;;;;;;;1.50;1.00;;;;;18.86;38.72;102074.75;5054321;28;45564;-76
2023/12/14 15:29:08;;;;;;;;;4.25;3.00;;;;;18.79;38.71;102047.06;5054816;28;45264;-80
2023/12/14 15:31:33;;;;;;;;;1.00;1.00;;;;;18.87;38.34;102068.34;5053150;28;45513;-79
2023/12/14 15:34:00;;;;;;;;;1.00;1.00;;;;;18.83;39.03;102077.63;5054492;28;46400;-77
2023/12/14 15:36:25;;;;;;;;;2.00;2.00;;;;;18.84;38.96;102077.53;5054441;28;45190;-77
2023/12/14 15:38:51;;;;;;;;;2.00;2.00;;;;;18.86;38.98;102085.63;5054263;28;45161;-77
2023/12/14 15:41:16;;;;;;;;;2.25;1.00;;;;;18.53;39.37;102044.97;5054026;28;45340;-77
2023/12/14 15:43:42;;;;;;;;;2.75;2.50;;;;;18.71;39.71;102087.41;5054390;28;45934;-79
2023/12/14 15:46:09;;;;;;;;;2.00;2.00;;;;;18.67;39.90;102085.81;5074126;28;45489;-77
2023/12/14 15:48:36;;;;;;;;;2.25;2.25;;;;;18.65;40.44;102098.59;5074339;28;45413;-79
2023/12/14 15:51:05;;;;;;;;;2.00;2.00;;;;;18.70;40.63;102093.78;5059115;28;45333;-78
2023/12/14 15:53:31;;;;;;;;;1.25;1.25;;;;;18.79;40.20;102090.53;5073617;28;46680;-78
2023/12/14 15:55:56;;;;;;;;;2.00;2.00;;;;;18.63;39.93;102062.50;5074819;28;45217;-79
2023/12/14 15:58:22;;;;;;;;;2.50;2.00;;;;;18.74;40.24;102108.06;5067748;28;45219;-77
2023/12/14 16:00:47;;;;;;;;;2.25;2.25;;;;;18.69;40.24;102102.03;5057377;28;45300;-75
2023/12/14 16:03:13;;;;;;;;;0.25;0.00;;;;;18.67;40.29;102090.38;5078064;28;46520;-77
2023/12/14 16:05:38;;;;;;;;;2.50;1.00;;;;;18.86;40.07;102110.06;5077438;28;45509;-77
2023/12/14 16:08:04;;;;;;;;;2.25;2.25;;;;;18.74;39.79;102095.34;5078061;28;45401;-76
2023/12/14 16:10:30;;;;;;;;;2.00;2.00;;;;;18.59;40.16;102100.81;5077551;28;45767;-78
2023/12/14 16:12:55;;;;;;;;;3.50;3.50;;;;;18.64;40.26;102131.28;5077990;28;46103;-77
2023/12/14 16:15:21;;;;;;;;;2.00;2.00;;;;;18.49;40.52;102133.88;5069143;28;45432;-78
2023/12/14 16:17:47;;;;;;;;;6.75;5.00;;;;;18.37;40.62;102122.88;5068799;28;45517;-79
2023/12/14 16:20:12;;;;;;;;;2.25;1.25;;;;;18.59;40.83;102144.25;5057332;28;46404;-79
2023/12/14 16:22:38;;;;;;;;;3.00;3.00;;;;;18.78;40.03;102134.97;5057792;28;45369;-77
2023/12/14 16:25:03;;;;;;;;;3.00;3.00;;;;;18.80;39.99;102143.00;5058799;28;45312;-77
2023/12/14 16:27:29;;;;;;;;;4.00;4.00;;;;;18.55;40.17;102140.81;5056476;28;45378;-78
2023/12/14 16:29:54;;;;;;;;;4.75;4.00;;;;;18.66;40.13;102153.81;5056821;28;53347;-77
2023/12/14 16:32:19;;;;;;;;;4.50;2.75;;;;;18.51;40.36;102131.09;5056703;28;55288;-76
2023/12/14 16:34:45;;;;;;;;;4.00;4.00;;;;;18.78;40.09;102159.44;5058584;28;45243;-78
2023/12/14 16:37:10;;;;;;;;;3.00;3.00;;;;;18.75;39.89;102172.31;5055853;28;45253;-75
2023/12/14 16:39:37;;;;;;;;;3.25;2.00;;;;;18.65;40.21;102171.06;5056280;28;45372;-77
2023/12/14 16:42:03;;;;;;;;;2.75;2.75;;;;;18.76;40.14;102149.59;5056904;28;45740;-78
2023/12/14 16:44:29;;;;;;;;;4.75;3.00;;;;;18.84;40.11;102175.38;5078341;28;45556;-77
2023/12/14 16:46:57;;;;;;;;;5.00;2.00;;;;;18.84;40.45;102161.78;5058948;28;45406;-78
2023/12/14 16:49:22;;;;;;;;;3.00;3.00;;;;;19.04;40.19;102176.94;5077007;28;45288;-79